Time,TemperatureF,DewpointF,PressureIn,WindDirection,WindDirectionDegrees,WindSpeedMPH,WindSpeedGustMPH,Humidity,HourlyPrecipIn,Conditions,Clouds,dailyrainin,SolarRadiationWatts/m^2,SoftwareType,DateUTC
2013-01-21 00:00:00,30.8,28.2,30.14,WNW,302,0.0,0.0,90,0.00,,,0.00,0,Wunderground v.1.15,2013-01-21 05:00:00,
2013-01-21 00:01:00,30.6,28.0,30.14,WNW,302,1.0,1.0,90,0.00,,,0.00,0,Wunderground v.1.15,2013-01-21 05:01:00,
2013-01-21 00:03:00,30.2,27.6,30.14,WNW,291,1.0,1.0,90,0.00,,,0.00,0,Wunderground v.1.15,2013-01-21 05:03:00,
2013-01-21 00:06:00,29.8,27.5,30.14,SSW,209,0.0,1.0,91,0.00,,,0.00,0,Wunderground v.1.15,2013-01-21 05:06:00,
2013-01-21 00:12:00,30.2,28.2,30.14,SSW,209,0.0,0.0,92,0.00,,,0.00,0,Wunderground v.1.15,2013-01-21 05:12:00,
2013-01-21 00:17:00,30.5,28.5,30.14,SSW,209,0.0,0.0,92,0.00,,,0.00,0,Wunderground v.1.15,2013-01-21 05:17:00,
2013-01-21 00:23:00,30.5,28.2,30.14,SSW,209,0.0,0.0,91,0.00,,,0.00,0,Wunderground v.1.15,2013-01-21 05:23:00,
2013-01-21 00:29:00,30.2,27.9,30.14,SSW,209,0.0,0.0,91,0.00,,,0.00,0,Wunderground v.1.15,2013-01-21 05:29:00,
2013-01-21 00:34:00,30.0,28.0,30.14,SSW,209,0.0,0.0,92,0.00,,,0.00,0,Wunderground v.1.15,2013-01-21 05:34:00,
2013-01-21 00:39:00,29.7,27.7,30.14,SSW,209,0.0,0.0,92,0.00,,,0.00,0,Wunderground v.1.15,2013-01-21 05:39:00,
2013-01-21 00:44:00,29.3,27.3,30.14,SSW,209,0.0,0.0,92,0.00,,,0.00,0,Wunderground v.1.15,2013-01-21 05:44:00,
2013-01-21 00:50:00,29.3,27.3,30.14,SW,234,0.0,0.0,92,0.00,,,0.00,0,Wunderground v.1.15,2013-01-21 05:50:00,
2013-01-21 00:56:00,29.3,27.3,30.14,SW,234,0.0,0.0,92,0.00,,,0.00,0,Wunderground v.1.15,2013-01-21 05:56:00,
2013-01-21 01:01:00,29.3,27.3,30.14,SW,234,0.0,0.0,92,0.00,,,0.00,0,Wunderground v.1.15,2013-01-21 06:01:00,
2013-01-21 01:06:00,28.9,26.9,30.15,SW,234,0.0,0.0,92,0.00,,,0.00,0,Wunderground v.1.15,2013-01-21 06:06:00,
2013-01-21 01:12:00,28.9,27.1,30.15,SW,234,0.0,0.0,93,0.00,,,0.00,0,Wunderground v.1.15,2013-01-21 06:12:00,
2013-01-21 01:18:00,28.6,26.8,30.14,WNW,284,2.0,2.0,93,0.00,,,0.00,0,Wunderground v.1.15,2013-01-21 06:18:00,
2013-01-21 01:24:00,28.8,27.0,30.14,WNW,300,0.0,1.0,93,0.00,,,0.00,0,Wunderground v.1.15,2013-01-21 06:24:00,
2013-01-21 01:30:00,28.8,27.0,30.14,WNW,300,0.0,0.0,93,0.00,,,0.00,0,Wunderground v.1.15,2013-01-21 06:30:00,
2013-01-21 01:36:00,28.5,26.7,30.14,WNW,300,0.0,0.0,93,0.00,,,0.00,0,Wunderground v.1.15,2013-01-21 06:36:00,
2013-01-21 01:42:00,28.2,26.4,30.15,WNW,300,0.0,0.0,93,0.00,,,0.00,0,Wunderground v.1.15,2013-01-21 06:42:00,
2013-01-21 01:47:00,28.2,26.4,30.15,WNW,300,0.0,0.0,93,0.00,,,0.00,0,Wunderground v.1.15,2013-01-21 06:47:00,
2013-01-21 01:53:00,28.0,26.2,30.15,WNW,300,0.0,0.0,93,0.00,,,0.00,0,Wunderground v.1.15,2013-01-21 06:53:00,
2013-01-21 01:59:00,28.2,26.7,30.15,WNW,300,0.0,0.0,94,0.00,,,0.00,0,Wunderground v.1.15,2013-01-21 06:59:00,
2013-01-21 02:04:00,28.4,26.9,30.15,WNW,300,0.0,1.0,94,0.00,,,0.00,0,Wunderground v.1.15,2013-01-21 07:04:00,
2013-01-21 02:09:00,28.1,26.6,30.15,WNW,300,0.0,1.0,94,0.00,,,0.00,0,Wunderground v.1.15,2013-01-21 07:09:00,
2013-01-21 02:14:00,27.9,26.4,30.15,WNW,300,0.0,0.0,94,0.00,,,0.00,0,Wunderground v.1.15,2013-01-21 07:14:00,
2013-01-21 02:19:00,28.0,26.5,30.15,WNW,300,0.0,0.0,94,0.00,,,0.00,0,Wunderground v.1.15,2013-01-21 07:19:00,
2013-01-21 02:24:00,28.1,26.6,30.15,WNW,300,0.0,0.0,94,0.00,,,0.00,0,Wunderground v.1.15,2013-01-21 07:24:00,
2013-01-21 02:29:00,28.3,26.8,30.15,WNW,300,0.0,0.0,94,0.00,,,0.00,0,Wunderground v.1.15,2013-01-21 07:29:00,
2013-01-21 02:34:00,28.2,26.7,30.15,WNW,300,0.0,0.0,94,0.00,,,0.00,0,Wunderground v.1.15,2013-01-21 07:34:00,
2013-01-21 02:39:00,28.0,26.5,30.16,WNW,300,0.0,0.0,94,0.00,,,0.00,0,Wunderground v.1.15,2013-01-21 07:39:00,
2013-01-21 02:44:00,28.2,26.7,30.16,WNW,300,0.0,0.0,94,0.00,,,0.00,0,Wunderground v.1.15,2013-01-21 07:44:00,
2013-01-21 02:49:00,28.2,26.7,30.15,WNW,300,0.0,0.0,94,0.00,,,0.00,0,Wunderground v.1.15,2013-01-21 07:49:00,
2013-01-21 02:54:00,28.0,26.5,30.16,WNW,300,0.0,0.0,94,0.00,,,0.00,0,Wunderground v.1.15,2013-01-21 07:54:00,
2013-01-21 02:59:00,27.8,26.3,30.16,WNW,300,0.0,0.0,94,0.00,,,0.00,0,Wunderground v.1.15,2013-01-21 07:59:00,
2013-01-21 03:04:00,27.9,26.4,30.16,WNW,300,0.0,0.0,94,0.00,,,0.00,0,Wunderground v.1.15,2013-01-21 08:04:00,
2013-01-21 03:09:00,28.0,26.5,30.16,WNW,300,0.0,0.0,94,0.00,,,0.00,0,Wunderground v.1.15,2013-01-21 08:09:00,
2013-01-21 03:14:00,28.2,26.7,30.16,WNW,300,0.0,0.0,94,0.00,,,0.00,0,Wunderground v.1.15,2013-01-21 08:14:00,
2013-01-21 03:19:00,28.0,26.5,30.15,WNW,300,0.0,0.0,94,0.00,,,0.00,0,Wunderground v.1.15,2013-01-21 08:19:00,
2013-01-21 03:24:00,27.4,25.6,30.15,WNW,300,0.0,0.0,93,0.00,,,0.00,0,Wunderground v.1.15,2013-01-21 08:24:00,
2013-01-21 03:29:00,26.9,25.1,30.15,WNW,300,0.0,0.0,93,0.00,,,0.00,0,Wunderground v.1.15,2013-01-21 08:29:00,
2013-01-21 03:34:00,26.9,25.4,30.15,WNW,300,0.0,0.0,94,0.00,,,0.00,0,Wunderground v.1.15,2013-01-21 08:34:00,
2013-01-21 03:39:00,27.0,25.5,30.15,WNW,300,0.0,0.0,94,0.00,,,0.00,0,Wunderground v.1.15,2013-01-21 08:39:00,
2013-01-21 03:44:00,27.2,25.7,30.15,WNW,300,0.0,0.0,94,0.00,,,0.00,0,Wunderground v.1.15,2013-01-21 08:44:00,
2013-01-21 03:49:00,27.5,26.0,30.15,WNW,300,0.0,0.0,94,0.00,,,0.00,0,Wunderground v.1.15,2013-01-21 08:49:00,
2013-01-21 03:55:00,27.4,25.9,30.15,WNW,300,0.0,0.0,94,0.00,,,0.00,0,Wunderground v.1.15,2013-01-21 08:55:00,
2013-01-21 04:00:00,27.4,25.9,30.14,WNW,300,0.0,0.0,94,0.00,,,0.00,0,Wunderground v.1.15,2013-01-21 09:00:00,
2013-01-21 04:05:00,27.2,25.7,30.14,WNW,300,0.0,0.0,94,0.00,,,0.00,0,Wunderground v.1.15,2013-01-21 09:05:00,
2013-01-21 04:10:00,26.9,25.4,30.14,WNW,300,0.0,0.0,94,0.00,,,0.00,0,Wunderground v.1.15,2013-01-21 09:10:00,
2013-01-21 04:15:00,26.6,25.1,30.14,WNW,300,0.0,0.0,94,0.00,,,0.00,0,Wunderground v.1.15,2013-01-21 09:15:00,
2013-01-21 04:20:00,26.3,24.8,30.14,WNW,300,0.0,0.0,94,0.00,,,0.00,0,Wunderground v.1.15,2013-01-21 09:20:00,
2013-01-21 04:25:00,26.5,25.0,30.14,WNW,300,0.0,0.0,94,0.00,,,0.00,0,Wunderground v.1.15,2013-01-21 09:25:00,
2013-01-21 04:30:00,26.3,24.8,30.14,WNW,300,0.0,0.0,94,0.00,,,0.00,0,Wunderground v.1.15,2013-01-21 09:30:00,
2013-01-21 04:35:00,26.3,24.8,30.13,WNW,300,0.0,0.0,94,0.00,,,0.00,0,Wunderground v.1.15,2013-01-21 09:35:00,
2013-01-21 04:40:00,26.1,24.6,30.13,WNW,300,0.0,0.0,94,0.00,,,0.00,0,Wunderground v.1.15,2013-01-21 09:40:00,
2013-01-21 04:45:00,26.2,24.7,30.13,WNW,300,0.0,0.0,94,0.00,,,0.00,0,Wunderground v.1.15,2013-01-21 09:45:00,
2013-01-21 04:50:00,26.1,24.6,30.14,WNW,300,0.0,0.0,94,0.00,,,0.00,0,Wunderground v.1.15,2013-01-21 09:50:00,
2013-01-21 04:55:00,26.4,24.9,30.14,WNW,300,0.0,0.0,94,0.00,,,0.00,0,Wunderground v.1.15,2013-01-21 09:55:00,
2013-01-21 05:00:00,26.5,25.0,30.14,WNW,300,0.0,0.0,94,0.00,,,0.00,0,Wunderground v.1.15,2013-01-21 10:00:00,
2013-01-21 05:05:00,26.4,24.9,30.14,WNW,300,0.0,0.0,94,0.00,,,0.00,0,Wunderground v.1.15,2013-01-21 10:05:00,
2013-01-21 05:10:00,26.5,25.0,30.14,WNW,300,0.0,0.0,94,0.00,,,0.00,0,Wunderground v.1.15,2013-01-21 10:10:00,
2013-01-21 05:15:00,26.4,24.9,30.14,WNW,300,0.0,0.0,94,0.00,,,0.00,0,Wunderground v.1.15,2013-01-21 10:15:00,
2013-01-21 05:20:00,26.3,24.8,30.13,WNW,300,0.0,0.0,94,0.00,,,0.00,0,Wunderground v.1.15,2013-01-21 10:20:00,
2013-01-21 05:25:00,26.5,25.0,30.13,WNW,300,0.0,0.0,94,0.00,,,0.00,0,Wunderground v.1.15,2013-01-21 10:25:00,
2013-01-21 05:30:00,26.4,24.9,30.13,WNW,300,0.0,0.0,94,0.00,,,0.00,0,Wunderground v.1.15,2013-01-21 10:30:00,
2013-01-21 05:35:00,26.3,24.8,30.14,WNW,300,0.0,0.0,94,0.00,,,0.00,0,Wunderground v.1.15,2013-01-21 10:35:00,
2013-01-21 05:40:00,26.0,24.5,30.14,WNW,300,0.0,0.0,94,0.00,,,0.00,0,Wunderground v.1.15,2013-01-21 10:40:00,
2013-01-21 05:45:00,26.0,24.5,30.14,WNW,300,0.0,0.0,94,0.00,,,0.00,0,Wunderground v.1.15,2013-01-21 10:45:00,
2013-01-21 05:50:00,26.0,24.5,30.14,WNW,300,0.0,0.0,94,0.00,,,0.00,0,Wunderground v.1.15,2013-01-21 10:50:00,
2013-01-21 05:55:00,25.8,24.3,30.14,WNW,300,0.0,0.0,94,0.00,,,0.00,0,Wunderground v.1.15,2013-01-21 10:55:00,
2013-01-21 06:01:00,25.6,24.1,30.14,WNW,300,0.0,0.0,94,0.00,,,0.00,0,Wunderground v.1.15,2013-01-21 11:01:00,
2013-01-21 06:06:00,25.5,24.0,30.14,WNW,300,0.0,0.0,94,0.00,,,0.00,0,Wunderground v.1.15,2013-01-21 11:06:00,
2013-01-21 06:11:00,25.0,23.5,30.14,WNW,300,0.0,0.0,94,0.00,,,0.00,0,Wunderground v.1.15,2013-01-21 11:11:00,
2013-01-21 06:16:00,25.2,23.7,30.14,WNW,300,0.0,0.0,94,0.00,,,0.00,0,Wunderground v.1.15,2013-01-21 11:16:00,
2013-01-21 06:21:00,25.2,23.7,30.14,WNW,300,0.0,0.0,94,0.00,,,0.00,0,Wunderground v.1.15,2013-01-21 11:21:00,
2013-01-21 06:26:00,25.4,23.9,30.14,WNW,300,0.0,0.0,94,0.00,,,0.00,0,Wunderground v.1.15,2013-01-21 11:26:00,
2013-01-21 06:31:00,25.7,24.2,30.14,WNW,300,0.0,0.0,94,0.00,,,0.00,0,Wunderground v.1.15,2013-01-21 11:31:00,
2013-01-21 06:36:00,25.5,24.0,30.14,WNW,300,0.0,0.0,94,0.00,,,0.00,0,Wunderground v.1.15,2013-01-21 11:36:00,
2013-01-21 06:42:00,25.1,23.6,30.14,WNW,300,0.0,0.0,94,0.00,,,0.00,0,Wunderground v.1.15,2013-01-21 11:42:00,
2013-01-21 06:47:00,25.0,23.5,30.14,WNW,300,0.0,0.0,94,0.00,,,0.00,0,Wunderground v.1.15,2013-01-21 11:47:00,
2013-01-21 06:52:00,24.8,23.3,30.14,WNW,300,0.0,0.0,94,0.00,,,0.00,0,Wunderground v.1.15,2013-01-21 11:52:00,
2013-01-21 06:57:00,25.0,23.5,30.14,WNW,300,0.0,0.0,94,0.00,,,0.00,0,Wunderground v.1.15,2013-01-21 11:57:00,
2013-01-21 07:02:00,25.1,23.6,30.14,WNW,300,0.0,0.0,94,0.00,,,0.00,0,Wunderground v.1.15,2013-01-21 12:02:00,
2013-01-21 07:07:00,24.8,23.3,30.14,WNW,300,0.0,0.0,94,0.00,,,0.00,0,Wunderground v.1.15,2013-01-21 12:07:00,
2013-01-21 07:12:00,24.8,23.3,30.14,WNW,300,0.0,0.0,94,0.00,,,0.00,0,Wunderground v.1.15,2013-01-21 12:12:00,
2013-01-21 07:17:00,25.3,23.8,30.14,WNW,300,0.0,0.0,94,0.00,,,0.00,0,Wunderground v.1.15,2013-01-21 12:17:00,
2013-01-21 07:22:00,25.4,23.9,30.14,WNW,300,0.0,0.0,94,0.00,,,0.00,7,Wunderground v.1.15,2013-01-21 12:22:00,
2013-01-21 07:27:00,25.4,23.9,30.14,WNW,300,0.0,0.0,94,0.00,,,0.00,9,Wunderground v.1.15,2013-01-21 12:27:00,
2013-01-21 07:32:00,25.3,23.8,30.14,WNW,300,0.0,0.0,94,0.00,,,0.00,12,Wunderground v.1.15,2013-01-21 12:32:00,
2013-01-21 07:37:00,25.5,24.0,30.14,WNW,300,1.0,1.0,94,0.00,,,0.00,14,Wunderground v.1.15,2013-01-21 12:37:00,
2013-01-21 07:42:00,26.7,25.2,30.15,SE,125,1.0,2.0,94,0.00,,,0.00,18,Wunderground v.1.15,2013-01-21 12:42:00,
2013-01-21 07:47:00,27.0,25.2,30.15,East,90,2.0,3.0,93,0.00,,,0.00,67,Wunderground v.1.15,2013-01-21 12:47:00,
2013-01-21 07:52:00,28.0,26.2,30.14,ENE,74,2.0,2.0,93,0.00,,,0.00,84,Wunderground v.1.15,2013-01-21 12:52:00,
2013-01-21 07:57:00,29.0,27.0,30.14,ENE,71,0.0,3.0,92,0.00,,,0.00,102,Wunderground v.1.15,2013-01-21 12:57:00,
2013-01-21 08:02:00,28.9,26.6,30.14,ENE,65,0.0,1.0,91,0.00,,,0.00,118,Wunderground v.1.15,2013-01-21 13:02:00,
2013-01-21 08:07:00,27.8,25.8,30.14,ENE,65,0.0,1.0,92,0.00,,,0.00,139,Wunderground v.1.15,2013-01-21 13:07:00,
2013-01-21 08:12:00,27.7,25.9,30.14,ENE,65,0.0,0.0,93,0.00,,,0.00,158,Wunderground v.1.15,2013-01-21 13:12:00,
2013-01-21 08:17:00,27.9,26.1,30.14,ENE,65,0.0,0.0,93,0.00,,,0.00,176,Wunderground v.1.15,2013-01-21 13:17:00,
2013-01-21 08:23:00,28.4,26.6,30.14,ENE,65,0.0,0.0,93,0.00,,,0.00,195,Wunderground v.1.15,2013-01-21 13:23:00,
2013-01-21 08:28:00,29.1,27.3,30.14,ENE,65,0.0,0.0,93,0.00,,,0.00,214,Wunderground v.1.15,2013-01-21 13:28:00,
2013-01-21 08:33:00,30.6,28.8,30.14,ENE,65,0.0,0.0,93,0.00,,,0.00,234,Wunderground v.1.15,2013-01-21 13:33:00,
2013-01-21 08:38:00,31.1,28.8,30.14,ENE,72,0.0,1.0,91,0.00,,,0.00,250,Wunderground v.1.15,2013-01-21 13:38:00,
2013-01-21 08:43:00,31.1,28.5,30.14,ENE,71,0.0,0.0,90,0.00,,,0.00,260,Wunderground v.1.15,2013-01-21 13:43:00,
2013-01-21 08:48:00,31.5,28.9,30.14,ENE,71,0.0,0.0,90,0.00,,,0.00,276,Wunderground v.1.15,2013-01-21 13:48:00,
2013-01-21 08:53:00,32.9,30.3,30.14,East,79,0.0,0.0,90,0.00,,,0.00,287,Wunderground v.1.15,2013-01-21 13:53:00,
2013-01-21 08:58:00,33.2,30.3,30.14,East,98,0.0,1.0,89,0.00,,,0.00,299,Wunderground v.1.15,2013-01-21 13:58:00,
2013-01-21 09:03:00,33.3,30.1,30.14,East,100,0.0,0.0,88,0.00,,,0.00,313,Wunderground v.1.15,2013-01-21 14:03:00,
2013-01-21 09:08:00,34.9,31.7,30.14,East,100,0.0,0.0,88,0.00,,,0.00,325,Wunderground v.1.15,2013-01-21 14:08:00,
2013-01-21 09:13:00,36.1,31.7,30.14,East,100,1.0,1.0,84,0.00,,,0.00,339,Wunderground v.1.15,2013-01-21 14:13:00,
2013-01-21 09:18:00,36.5,30.9,30.14,ESE,110,0.0,2.0,80,0.00,,,0.00,352,Wunderground v.1.15,2013-01-21 14:18:00,
2013-01-21 09:23:00,37.0,31.1,30.14,ESE,109,1.0,3.0,79,0.00,,,0.00,362,Wunderground v.1.15,2013-01-21 14:23:00,
2013-01-21 09:28:00,37.8,31.6,30.14,SE,140,2.0,3.0,78,0.00,,,0.00,376,Wunderground v.1.15,2013-01-21 14:28:00,
2013-01-21 09:34:00,38.9,31.6,30.14,ESE,119,2.0,3.0,75,0.00,,,0.00,390,Wunderground v.1.15,2013-01-21 14:34:00,
2013-01-21 09:39:00,39.7,31.4,30.13,SE,134,0.0,4.0,72,0.00,,,0.00,401,Wunderground v.1.15,2013-01-21 14:39:00,
2013-01-21 09:44:00,40.3,31.6,30.14,ESE,123,1.0,5.0,71,0.00,,,0.00,413,Wunderground v.1.15,2013-01-21 14:44:00,
2013-01-21 09:49:00,40.9,30.8,30.14,SE,128,3.0,5.0,67,0.00,,,0.00,424,Wunderground v.1.15,2013-01-21 14:49:00,
2013-01-21 09:54:00,41.2,30.7,30.14,East,89,2.0,4.0,66,0.00,,,0.00,436,Wunderground v.1.15,2013-01-21 14:54:00,
2013-01-21 09:59:00,41.3,30.4,30.14,East,96,2.0,4.0,65,0.00,,,0.00,445,Wunderground v.1.15,2013-01-21 14:59:00,
2013-01-21 10:04:00,41.6,30.7,30.14,ESE,116,2.0,4.0,65,0.00,,,0.00,455,Wunderground v.1.15,2013-01-21 15:04:00,
2013-01-21 10:09:00,42.2,30.9,30.14,ESE,115,1.0,4.0,64,0.00,,,0.00,464,Wunderground v.1.15,2013-01-21 15:09:00,
2013-01-21 10:14:00,42.0,30.7,30.14,SE,130,1.0,4.0,64,0.00,,,0.00,476,Wunderground v.1.15,2013-01-21 15:14:00,
2013-01-21 10:19:00,43.1,31.7,30.14,ESE,105,2.0,4.0,64,0.00,,,0.00,487,Wunderground v.1.15,2013-01-21 15:19:00,
2013-01-21 10:24:00,43.3,31.1,30.13,ESE,117,1.0,3.0,62,0.00,,,0.00,494,Wunderground v.1.15,2013-01-21 15:24:00,
2013-01-21 10:29:00,43.9,31.7,30.13,ESE,122,2.0,3.0,62,0.00,,,0.00,503,Wunderground v.1.15,2013-01-21 15:29:00,
2013-01-21 10:34:00,44.8,32.2,30.13,SSE,161,0.0,3.0,61,0.00,,,0.00,510,Wunderground v.1.15,2013-01-21 15:34:00,
2013-01-21 10:39:00,45.0,30.7,30.13,SSE,148,2.0,4.0,57,0.00,,,0.00,519,Wunderground v.1.15,2013-01-21 15:39:00,
2013-01-21 10:44:00,45.8,31.4,30.13,South,188,2.0,3.0,57,0.00,,,0.00,526,Wunderground v.1.15,2013-01-21 15:44:00,
2013-01-21 10:49:00,46.6,30.4,30.13,South,172,4.0,4.0,53,0.00,,,0.00,533,Wunderground v.1.15,2013-01-21 15:49:00,
2013-01-21 10:54:00,47.5,29.3,30.12,South,184,4.0,5.0,49,0.00,,,0.00,540,Wunderground v.1.15,2013-01-21 15:54:00,
2013-01-21 10:59:00,47.5,28.3,30.12,South,172,3.0,7.0,47,0.00,,,0.00,545,Wunderground v.1.15,2013-01-21 15:59:00,
2013-01-21 11:04:00,47.3,29.1,30.12,SSE,161,3.0,6.0,49,0.00,,,0.00,550,Wunderground v.1.15,2013-01-21 16:04:00,
2013-01-21 11:09:00,47.7,28.9,30.12,SE,146,3.0,7.0,48,0.00,,,0.00,555,Wunderground v.1.15,2013-01-21 16:09:00,
2013-01-21 11:14:00,48.1,29.8,30.11,South,173,2.0,6.0,49,0.00,,,0.00,559,Wunderground v.1.15,2013-01-21 16:14:00,
2013-01-21 11:19:00,49.0,28.0,30.11,SSE,155,6.0,7.0,44,0.00,,,0.00,563,Wunderground v.1.15,2013-01-21 16:19:00,
2013-01-21 11:24:00,49.4,28.9,30.10,South,190,4.0,6.0,45,0.00,,,0.00,568,Wunderground v.1.15,2013-01-21 16:24:00,
2013-01-21 11:29:00,49.5,27.3,30.10,SSW,201,7.0,9.0,42,0.00,,,0.00,570,Wunderground v.1.15,2013-01-21 16:29:00,
2013-01-21 11:34:00,49.6,28.6,30.09,SW,223,3.0,7.0,44,0.00,,,0.00,573,Wunderground v.1.15,2013-01-21 16:34:00,
2013-01-21 11:39:00,49.8,28.7,30.09,WSW,255,2.0,7.0,44,0.00,,,0.00,575,Wunderground v.1.15,2013-01-21 16:39:00,
2013-01-21 11:44:00,50.9,29.2,30.09,SW,218,8.0,8.0,43,0.00,,,0.00,578,Wunderground v.1.15,2013-01-21 16:44:00,
2013-01-21 11:49:00,50.6,27.7,30.08,SW,215,6.0,8.0,41,0.00,,,0.00,578,Wunderground v.1.15,2013-01-21 16:49:00,
2013-01-21 11:54:00,50.3,26.9,30.08,SSE,155,5.0,8.0,40,0.00,,,0.00,578,Wunderground v.1.15,2013-01-21 16:54:00,
2013-01-21 11:59:00,50.6,25.9,30.08,South,171,5.0,8.0,38,0.00,,,0.00,580,Wunderground v.1.15,2013-01-21 16:59:00,
2013-01-21 12:04:00,50.6,24.6,30.07,SSW,203,2.0,7.0,36,0.00,,,0.00,578,Wunderground v.1.15,2013-01-21 17:04:00,
2013-01-21 12:09:00,51.0,26.3,30.07,SE,131,3.0,7.0,38,0.00,,,0.00,578,Wunderground v.1.15,2013-01-21 17:09:00,
2013-01-21 12:14:00,51.3,26.5,30.07,South,183,3.0,7.0,38,0.00,,,0.00,577,Wunderground v.1.15,2013-01-21 17:14:00,
2013-01-21 12:19:00,50.7,27.2,30.06,South,188,1.0,7.0,40,0.00,,,0.00,577,Wunderground v.1.15,2013-01-21 17:19:00,
2013-01-21 12:24:00,51.3,28.4,30.06,SSW,204,7.0,9.0,41,0.00,,,0.00,575,Wunderground v.1.15,2013-01-21 17:24:00,
2013-01-21 12:29:00,51.3,28.4,30.06,SSE,153,5.0,9.0,41,0.00,,,0.00,573,Wunderground v.1.15,2013-01-21 17:29:00,
2013-01-21 12:35:00,51.3,27.8,30.05,SSW,192,4.0,4.0,40,0.00,,,0.00,570,Wunderground v.1.15,2013-01-21 17:35:00,
2013-01-21 12:40:00,51.5,29.1,30.04,ESE,123,3.0,3.0,42,0.00,,,0.00,568,Wunderground v.1.15,2013-01-21 17:40:00,
2013-01-21 12:45:00,51.5,29.7,30.04,South,179,3.0,7.0,43,0.00,,,0.00,566,Wunderground v.1.15,2013-01-21 17:45:00,
2013-01-21 12:50:00,51.2,27.7,30.04,East,80,2.0,3.0,40,0.00,,,0.00,561,Wunderground v.1.15,2013-01-21 17:50:00,
2013-01-21 12:55:00,51.7,30.5,30.03,WSW,256,1.0,3.0,44,0.00,,,0.00,557,Wunderground v.1.15,2013-01-21 17:55:00,
2013-01-21 13:00:00,52.7,29.0,30.03,SSW,205,1.0,2.0,40,0.00,,,0.00,554,Wunderground v.1.15,2013-01-21 18:00:00,
2013-01-21 13:05:00,53.9,29.5,30.02,WSW,250,4.0,11.0,39,0.00,,,0.00,548,Wunderground v.1.15,2013-01-21 18:05:00,
2013-01-21 13:10:00,53.5,28.5,30.02,SSW,211,8.0,8.0,38,0.00,,,0.00,543,Wunderground v.1.15,2013-01-21 18:10:00,
2013-01-21 13:15:00,53.5,31.0,30.01,WNW,294,0.0,8.0,42,0.00,,,0.00,540,Wunderground v.1.15,2013-01-21 18:15:00,
2013-01-21 13:20:00,54.0,30.8,30.01,SW,214,5.0,5.0,41,0.00,,,0.00,533,Wunderground v.1.15,2013-01-21 18:20:00,
2013-01-21 13:25:00,53.6,29.8,30.00,West,263,2.0,9.0,40,0.00,,,0.00,526,Wunderground v.1.15,2013-01-21 18:25:00,
2013-01-21 13:30:00,53.6,28.6,30.01,West,259,0.0,4.0,38,0.00,,,0.00,519,Wunderground v.1.15,2013-01-21 18:30:00,
2013-01-21 13:35:00,54.0,29.6,30.00,SW,232,3.0,8.0,39,0.00,,,0.00,512,Wunderground v.1.15,2013-01-21 18:35:00,
2013-01-21 13:40:00,54.5,30.0,29.99,WSW,251,9.0,9.0,39,0.00,,,0.00,504,Wunderground v.1.15,2013-01-21 18:40:00,
2013-01-21 13:45:00,54.6,30.1,29.99,West,277,2.0,10.0,39,0.00,,,0.00,494,Wunderground v.1.15,2013-01-21 18:45:00,
2013-01-21 13:50:00,55.0,29.2,29.99,WSW,240,2.0,3.0,37,0.00,,,0.00,487,Wunderground v.1.15,2013-01-21 18:50:00,
2013-01-21 13:55:00,55.1,29.3,29.98,WNW,296,5.0,9.0,37,0.00,,,0.00,478,Wunderground v.1.15,2013-01-21 18:55:00,
2013-01-21 14:00:00,55.3,29.4,29.98,SW,231,6.0,6.0,37,0.00,,,0.00,469,Wunderground v.1.15,2013-01-21 19:00:00,
2013-01-21 14:05:00,55.1,29.3,29.98,West,263,2.0,10.0,37,0.00,,,0.00,459,Wunderground v.1.15,2013-01-21 19:05:00,
2013-01-21 14:10:00,55.1,27.9,29.97,SSW,213,5.0,9.0,35,0.00,,,0.00,450,Wunderground v.1.15,2013-01-21 19:10:00,
2013-01-21 14:15:00,55.6,29.0,29.96,SSE,167,3.0,10.0,36,0.00,,,0.00,439,Wunderground v.1.15,2013-01-21 19:15:00,
2013-01-21 14:20:00,55.8,29.2,29.96,SW,223,9.0,9.0,36,0.00,,,0.00,431,Wunderground v.1.15,2013-01-21 19:20:00,
2013-01-21 14:25:00,56.0,29.4,29.95,SW,229,5.0,9.0,36,0.00,,,0.00,418,Wunderground v.1.15,2013-01-21 19:25:00,
2013-01-21 14:30:00,56.2,30.2,29.95,SW,219,6.0,8.0,37,0.00,,,0.00,408,Wunderground v.1.15,2013-01-21 19:30:00,
2013-01-21 14:35:00,56.2,28.2,29.95,SSW,208,10.0,15.0,34,0.00,,,0.00,396,Wunderground v.1.15,2013-01-21 19:35:00,
2013-01-21 14:41:00,56.2,28.9,29.95,WSW,253,3.0,8.0,35,0.00,,,0.00,385,Wunderground v.1.15,2013-01-21 19:41:00,
2013-01-21 14:46:00,56.3,29.0,29.95,SW,229,5.0,10.0,35,0.00,,,0.00,373,Wunderground v.1.15,2013-01-21 19:46:00,
2013-01-21 14:51:00,56.3,29.0,29.95,SW,219,4.0,5.0,35,0.00,,,0.00,360,Wunderground v.1.15,2013-01-21 19:51:00,
2013-01-21 14:55:00,56.5,29.1,29.95,SSE,164,3.0,13.0,35,0.00,,,0.00,350,Wunderground v.1.15,2013-01-21 19:55:00,
2013-01-21 15:01:00,56.8,30.8,29.95,SW,216,4.0,5.0,37,0.00,,,0.00,338,Wunderground v.1.15,2013-01-21 20:01:00,
2013-01-21 15:06:00,56.9,28.8,29.94,SSW,213,6.0,13.0,34,0.00,,,0.00,323,Wunderground v.1.15,2013-01-21 20:06:00,
2013-01-21 15:11:00,57.0,28.9,29.94,SSW,211,4.0,13.0,34,0.00,,,0.00,311,Wunderground v.1.15,2013-01-21 20:11:00,
2013-01-21 15:16:00,57.1,30.4,29.94,SW,220,5.0,13.0,36,0.00,,,0.00,306,Wunderground v.1.15,2013-01-21 20:16:00,
2013-01-21 15:21:00,56.9,29.5,29.93,SSW,196,7.0,9.0,35,0.00,,,0.00,285,Wunderground v.1.15,2013-01-21 20:21:00,
2013-01-21 15:26:00,56.6,29.2,29.93,SSW,210,6.0,15.0,35,0.00,,,0.00,265,Wunderground v.1.15,2013-01-21 20:26:00,
2013-01-21 15:31:00,57.0,30.3,29.93,SSW,212,6.0,9.0,36,0.00,,,0.00,248,Wunderground v.1.15,2013-01-21 20:31:00,
2013-01-21 15:36:00,57.0,30.3,29.92,SW,217,1.0,10.0,36,0.00,,,0.00,229,Wunderground v.1.15,2013-01-21 20:36:00,
2013-01-21 15:41:00,56.8,30.1,29.92,SSE,165,5.0,7.0,36,0.00,,,0.00,211,Wunderground v.1.15,2013-01-21 20:41:00,
2013-01-21 15:46:00,56.9,30.2,29.92,SW,232,3.0,14.0,36,0.00,,,0.00,195,Wunderground v.1.15,2013-01-21 20:46:00,
2013-01-21 15:51:00,56.9,30.2,29.92,South,171,3.0,9.0,36,0.00,,,0.00,176,Wunderground v.1.15,2013-01-21 20:51:00,
2013-01-21 15:56:00,56.9,30.9,29.92,SSW,202,6.0,10.0,37,0.00,,,0.00,158,Wunderground v.1.15,2013-01-21 20:56:00,
2013-01-21 16:01:00,56.8,31.4,29.92,SSE,166,0.0,8.0,38,0.00,,,0.00,141,Wunderground v.1.15,2013-01-21 21:01:00,
2013-01-21 16:06:00,56.8,31.4,29.92,SW,232,2.0,9.0,38,0.00,,,0.00,123,Wunderground v.1.15,2013-01-21 21:06:00,
2013-01-21 16:11:00,56.8,31.4,29.92,SW,217,1.0,7.0,38,0.00,,,0.00,107,Wunderground v.1.15,2013-01-21 21:11:00,
2013-01-21 16:16:00,56.9,32.2,29.91,WNW,298,1.0,8.0,39,0.00,,,0.00,90,Wunderground v.1.15,2013-01-21 21:16:00,
2013-01-21 16:21:00,56.8,31.4,29.91,WSW,257,2.0,8.0,38,0.00,,,0.00,76,Wunderground v.1.15,2013-01-21 21:21:00,
2013-01-21 16:26:00,56.7,32.0,29.91,West,276,2.0,13.0,39,0.00,,,0.00,62,Wunderground v.1.15,2013-01-21 21:26:00,
2013-01-21 16:31:00,56.6,31.3,29.91,SW,216,4.0,11.0,38,0.00,,,0.00,51,Wunderground v.1.15,2013-01-21 21:31:00,
2013-01-21 16:36:00,56.6,31.3,29.90,SSE,159,4.0,11.0,38,0.00,,,0.00,40,Wunderground v.1.15,2013-01-21 21:36:00,
2013-01-21 16:41:00,56.4,31.1,29.90,SSW,199,2.0,12.0,38,0.00,,,0.00,30,Wunderground v.1.15,2013-01-21 21:41:00,
2013-01-21 16:46:00,56.3,31.6,29.89,SW,235,1.0,12.0,39,0.00,,,0.00,25,Wunderground v.1.15,2013-01-21 21:46:00,
2013-01-21 16:51:00,56.0,31.4,29.89,SSW,205,2.0,6.0,39,0.00,,,0.00,23,Wunderground v.1.15,2013-01-21 21:51:00,
2013-01-21 16:57:00,55.5,32.2,29.90,West,267,5.0,7.0,41,0.00,,,0.00,21,Wunderground v.1.15,2013-01-21 21:57:00,
2013-01-21 17:02:00,55.6,31.6,29.90,SW,222,6.0,11.0,40,0.00,,,0.00,19,Wunderground v.1.15,2013-01-21 22:02:00,
2013-01-21 17:07:00,55.4,32.1,29.90,SSW,213,5.0,11.0,41,0.00,,,0.00,16,Wunderground v.1.15,2013-01-21 22:07:00,
2013-01-21 17:12:00,55.0,31.1,29.91,West,259,4.0,7.0,40,0.00,,,0.00,14,Wunderground v.1.15,2013-01-21 22:12:00,
2013-01-21 17:17:00,54.7,32.0,29.90,SW,232,2.0,8.0,42,0.00,,,0.00,11,Wunderground v.1.15,2013-01-21 22:17:00,
2013-01-21 17:22:00,54.4,31.8,29.90,West,269,2.0,6.0,42,0.00,,,0.00,9,Wunderground v.1.15,2013-01-21 22:22:00,
2013-01-21 17:27:00,54.0,30.8,29.90,WSW,238,6.0,6.0,41,0.00,,,0.00,7,Wunderground v.1.15,2013-01-21 22:27:00,
2013-01-21 17:32:00,53.9,31.3,29.90,WSW,244,1.0,4.0,42,0.00,,,0.00,0,Wunderground v.1.15,2013-01-21 22:32:00,
2013-01-21 17:37:00,53.7,31.1,29.90,WSW,239,1.0,9.0,42,0.00,,,0.00,0,Wunderground v.1.15,2013-01-21 22:37:00,
2013-01-21 17:42:00,53.3,30.8,29.90,WSW,252,1.0,6.0,42,0.00,,,0.00,0,Wunderground v.1.15,2013-01-21 22:42:00,
2013-01-21 17:47:00,53.4,30.9,29.90,SW,219,3.0,7.0,42,0.00,,,0.00,0,Wunderground v.1.15,2013-01-21 22:47:00,
2013-01-21 17:52:00,53.3,30.8,29.90,WSW,245,0.0,5.0,42,0.00,,,0.00,0,Wunderground v.1.15,2013-01-21 22:52:00,
2013-01-21 17:57:00,53.0,31.1,29.90,WSW,238,0.0,5.0,43,0.00,,,0.00,0,Wunderground v.1.15,2013-01-21 22:57:00,
2013-01-21 18:02:00,52.7,30.8,29.90,SW,229,5.0,5.0,43,0.00,,,0.00,0,Wunderground v.1.15,2013-01-21 23:02:00,
2013-01-21 18:07:00,52.4,31.1,29.90,SW,236,0.0,5.0,44,0.00,,,0.00,0,Wunderground v.1.15,2013-01-21 23:07:00,
2013-01-21 18:12:00,52.2,31.5,29.91,West,267,0.0,3.0,45,0.00,,,0.00,0,Wunderground v.1.15,2013-01-21 23:12:00,
2013-01-21 18:17:00,51.5,30.8,29.91,SW,231,0.0,3.0,45,0.00,,,0.00,0,Wunderground v.1.15,2013-01-21 23:17:00,
2013-01-21 18:22:00,50.7,31.2,29.91,West,279,0.0,1.0,47,0.00,,,0.00,0,Wunderground v.1.15,2013-01-21 23:22:00,
2013-01-21 18:27:00,49.6,31.7,29.91,West,269,0.0,2.0,50,0.00,,,0.00,0,Wunderground v.1.15,2013-01-21 23:27:00,
2013-01-21 18:32:00,49.1,31.2,29.92,West,269,1.0,2.0,50,0.00,,,0.00,0,Wunderground v.1.15,2013-01-21 23:32:00,
2013-01-21 18:37:00,49.7,31.8,29.92,West,262,1.0,4.0,50,0.00,,,0.00,0,Wunderground v.1.15,2013-01-21 23:37:00,
2013-01-21 18:42:00,49.6,31.2,29.92,WSW,256,1.0,2.0,49,0.00,,,0.00,0,Wunderground v.1.15,2013-01-21 23:42:00,
2013-01-21 18:47:00,49.8,31.9,29.92,WSW,250,0.0,5.0,50,0.00,,,0.00,0,Wunderground v.1.15,2013-01-21 23:47:00,
2013-01-21 18:52:00,49.7,31.3,29.93,West,261,2.0,5.0,49,0.00,,,0.00,0,Wunderground v.1.15,2013-01-21 23:52:00,
2013-01-21 18:57:00,49.9,31.5,29.93,West,271,5.0,6.0,49,0.00,,,0.00,0,Wunderground v.1.15,2013-01-21 23:57:00,
2013-01-21 19:02:00,50.3,30.8,29.92,WNW,283,3.0,4.0,47,0.00,,,0.00,0,Wunderground v.1.15,2013-01-22 00:02:00,
2013-01-21 19:07:00,50.1,30.6,29.93,NNW,346,1.0,5.0,47,0.00,,,0.00,0,Wunderground v.1.15,2013-01-22 00:07:00,
2013-01-21 19:12:00,49.8,30.4,29.93,NW,318,3.0,5.0,47,0.00,,,0.00,0,Wunderground v.1.15,2013-01-22 00:12:00,
2013-01-21 19:17:00,49.6,29.6,29.93,NNW,329,2.0,6.0,46,0.00,,,0.00,0,Wunderground v.1.15,2013-01-22 00:17:00,
2013-01-21 19:22:00,49.6,28.6,29.94,WNW,303,5.0,9.0,44,0.00,,,0.00,0,Wunderground v.1.15,2013-01-22 00:22:00,
2013-01-21 19:27:00,49.3,27.2,29.94,NW,321,2.0,9.0,42,0.00,,,0.00,0,Wunderground v.1.15,2013-01-22 00:27:00,
2013-01-21 19:32:00,49.0,26.9,29.94,West,270,5.0,6.0,42,0.00,,,0.00,0,Wunderground v.1.15,2013-01-22 00:32:00,
2013-01-21 19:37:00,48.9,25.6,29.94,NNE,16,4.0,10.0,40,0.00,,,0.00,0,Wunderground v.1.15,2013-01-22 00:37:00,
2013-01-21 19:42:00,48.7,25.4,29.95,WNW,286,1.0,8.0,40,0.00,,,0.00,0,Wunderground v.1.15,2013-01-22 00:42:00,
2013-01-21 19:47:00,48.6,24.7,29.95,West,280,2.0,8.0,39,0.00,,,0.00,0,Wunderground v.1.15,2013-01-22 00:47:00,
2013-01-21 19:52:00,48.4,23.9,29.95,West,268,6.0,12.0,38,0.00,,,0.00,0,Wunderground v.1.15,2013-01-22 00:52:00,
2013-01-21 19:57:00,48.1,24.3,29.95,SW,223,4.0,13.0,39,0.00,,,0.00,0,Wunderground v.1.15,2013-01-22 00:57:00,
2013-01-21 20:02:00,47.9,23.5,29.95,WSW,258,9.0,9.0,38,0.00,,,0.00,0,Wunderground v.1.15,2013-01-22 01:02:00,
2013-01-21 20:07:00,47.8,23.4,29.95,WSW,244,3.0,12.0,38,0.00,,,0.00,0,Wunderground v.1.15,2013-01-22 01:07:00,
2013-01-21 20:12:00,47.3,22.9,29.96,North,360,3.0,6.0,38,0.00,,,0.00,0,Wunderground v.1.15,2013-01-22 01:12:00,
2013-01-21 20:17:00,47.0,22.7,29.96,NNW,346,3.0,11.0,38,0.00,,,0.00,0,Wunderground v.1.15,2013-01-22 01:17:00,
2013-01-21 20:22:00,47.0,22.0,29.96,NW,306,4.0,7.0,37,0.00,,,0.00,0,Wunderground v.1.15,2013-01-22 01:22:00,
2013-01-21 20:27:00,47.0,21.4,29.96,West,259,8.0,11.0,36,0.00,,,0.00,0,Wunderground v.1.15,2013-01-22 01:27:00,
2013-01-21 20:32:00,46.8,21.2,29.96,NNW,341,1.0,7.0,36,0.00,,,0.00,0,Wunderground v.1.15,2013-01-22 01:32:00,
2013-01-21 20:37:00,46.5,20.9,29.97,NNW,329,5.0,12.0,36,0.00,,,0.00,0,Wunderground v.1.15,2013-01-22 01:37:00,
2013-01-21 20:42:00,46.3,20.8,29.97,West,275,4.0,6.0,36,0.00,,,0.00,0,Wunderground v.1.15,2013-01-22 01:42:00,
2013-01-21 20:48:00,46.1,20.6,29.97,West,260,10.0,10.0,36,0.00,,,0.00,0,Wunderground v.1.15,2013-01-22 01:48:00,
2013-01-21 20:53:00,45.9,20.4,29.97,WSW,250,10.0,10.0,36,0.00,,,0.00,0,Wunderground v.1.15,2013-01-22 01:53:00,
2013-01-21 20:58:00,46.0,19.2,29.97,West,269,6.0,16.0,34,0.00,,,0.00,0,Wunderground v.1.15,2013-01-22 01:58:00,
2013-01-21 21:03:00,45.8,18.3,29.98,WSW,257,3.0,7.0,33,0.00,,,0.00,0,Wunderground v.1.15,2013-01-22 02:03:00,
2013-01-21 21:08:00,45.6,17.4,29.98,WNW,285,4.0,11.0,32,0.00,,,0.00,0,Wunderground v.1.15,2013-01-22 02:08:00,
2013-01-21 21:13:00,45.5,17.3,29.98,WSW,248,6.0,12.0,32,0.00,,,0.00,0,Wunderground v.1.15,2013-01-22 02:13:00,
2013-01-21 21:18:00,45.5,17.3,29.98,WNW,284,3.0,12.0,32,0.00,,,0.00,0,Wunderground v.1.15,2013-01-22 02:18:00,
2013-01-21 21:23:00,45.2,17.0,29.98,WNW,285,0.0,5.0,32,0.00,,,0.00,0,Wunderground v.1.15,2013-01-22 02:23:00,
2013-01-21 21:28:00,44.9,17.5,29.98,WSW,254,3.0,9.0,33,0.00,,,0.00,0,Wunderground v.1.15,2013-01-22 02:28:00,
2013-01-21 21:33:00,44.8,16.7,29.98,WNW,293,3.0,12.0,32,0.00,,,0.00,0,Wunderground v.1.15,2013-01-22 02:33:00,
2013-01-21 21:38:00,44.8,16.7,29.98,WNW,301,3.0,12.0,32,0.00,,,0.00,0,Wunderground v.1.15,2013-01-22 02:38:00,
2013-01-21 21:43:00,44.7,16.6,29.98,West,279,5.0,11.0,32,0.00,,,0.00,0,Wunderground v.1.15,2013-01-22 02:43:00,
2013-01-21 21:48:00,44.3,17.7,29.98,WNW,288,1.0,11.0,34,0.00,,,0.00,0,Wunderground v.1.15,2013-01-22 02:48:00,
2013-01-21 21:53:00,44.1,16.8,29.98,WNW,291,2.0,7.0,33,0.00,,,0.00,0,Wunderground v.1.15,2013-01-22 02:53:00,
2013-01-21 21:58:00,44.0,16.7,29.99,WNW,284,1.0,14.0,33,0.00,,,0.00,0,Wunderground v.1.15,2013-01-22 02:58:00,
2013-01-21 22:03:00,43.8,17.2,29.99,West,267,0.0,8.0,34,0.00,,,0.00,0,Wunderground v.1.15,2013-01-22 03:03:00,
2013-01-21 22:08:00,43.5,16.9,29.99,WSW,241,1.0,8.0,34,0.00,,,0.00,0,Wunderground v.1.15,2013-01-22 03:08:00,
2013-01-21 22:13:00,43.3,16.8,29.99,West,274,5.0,8.0,34,0.00,,,0.00,0,Wunderground v.1.15,2013-01-22 03:13:00,
2013-01-21 22:18:00,43.2,17.4,29.99,West,275,1.0,10.0,35,0.00,,,0.00,0,Wunderground v.1.15,2013-01-22 03:18:00,
2013-01-21 22:24:00,42.7,16.9,29.99,WNW,298,5.0,5.0,35,0.00,,,0.00,0,Wunderground v.1.15,2013-01-22 03:24:00,
2013-01-21 22:29:00,42.5,16.7,29.99,NNW,327,1.0,7.0,35,0.00,,,0.00,0,Wunderground v.1.15,2013-01-22 03:29:00,
2013-01-21 22:34:00,42.5,16.7,29.99,WNW,284,3.0,7.0,35,0.00,,,0.00,0,Wunderground v.1.15,2013-01-22 03:34:00,
2013-01-21 22:39:00,42.4,17.3,29.99,WSW,252,2.0,7.0,36,0.00,,,0.00,0,Wunderground v.1.15,2013-01-22 03:39:00,
2013-01-21 22:44:00,42.2,17.1,30.00,WSW,256,1.0,4.0,36,0.00,,,0.00,0,Wunderground v.1.15,2013-01-22 03:44:00,
2013-01-21 22:49:00,41.9,16.9,30.00,WNW,288,0.0,4.0,36,0.00,,,0.00,0,Wunderground v.1.15,2013-01-22 03:49:00,
2013-01-21 22:54:00,41.9,16.9,30.00,WNW,286,1.0,6.0,36,0.00,,,0.00,0,Wunderground v.1.15,2013-01-22 03:54:00,
2013-01-21 22:59:00,41.7,16.7,30.00,WNW,295,1.0,6.0,36,0.00,,,0.00,0,Wunderground v.1.15,2013-01-22 03:59:00,
2013-01-21 23:04:00,41.5,17.1,30.00,WNW,283,1.0,3.0,37,0.00,,,0.00,0,Wunderground v.1.15,2013-01-22 04:04:00,
2013-01-21 23:09:00,40.8,17.7,30.00,WNW,294,1.0,4.0,39,0.00,,,0.00,0,Wunderground v.1.15,2013-01-22 04:09:00,
2013-01-21 23:14:00,40.4,17.4,30.00,West,277,0.0,1.0,39,0.00,,,0.00,0,Wunderground v.1.15,2013-01-22 04:14:00,
2013-01-21 23:19:00,40.0,17.6,30.00,WSW,246,1.0,4.0,40,0.00,,,0.00,0,Wunderground v.1.15,2013-01-22 04:19:00,
2013-01-21 23:24:00,39.9,17.5,30.00,NW,305,1.0,6.0,40,0.00,,,0.00,0,Wunderground v.1.15,2013-01-22 04:24:00,
2013-01-21 23:29:00,40.0,17.0,30.00,WNW,302,1.0,6.0,39,0.00,,,0.00,0,Wunderground v.1.15,2013-01-22 04:29:00,
2013-01-21 23:34:00,40.0,17.0,30.00,WNW,286,2.0,6.0,39,0.00,,,0.00,0,Wunderground v.1.15,2013-01-22 04:34:00,
2013-01-21 23:39:00,39.8,16.8,30.01,WSW,254,5.0,6.0,39,0.00,,,0.00,0,Wunderground v.1.15,2013-01-22 04:39:00,
2013-01-21 23:44:00,39.8,15.6,30.01,NW,320,6.0,10.0,37,0.00,,,0.00,0,Wunderground v.1.15,2013-01-22 04:44:00,
2013-01-21 23:49:00,40.1,14.6,30.01,NW,320,6.0,10.0,35,0.00,,,0.00,0,Wunderground v.1.15,2013-01-22 04:49:00,
2013-01-21 23:54:00,40.2,14.7,30.01,South,171,6.0,10.0,35,0.00,,,0.00,0,Wunderground v.1.15,2013-01-22 04:54:00,
2013-01-21 23:59:00,40.2,14.7,30.01,NNW,342,2.0,10.0,35,0.00,,,0.00,0,Wunderground v.1.15,2013-01-22 04:59:00,